createdAt,value
2023-03-27T00:01:13.271Z,94.31
2023-03-27T00:03:40.866Z,94.11
2023-03-27T00:06:09.688Z,94.48
2023-03-27T00:08:36.864Z,95.31
2023-03-27T00:11:06.928Z,95.21
2023-03-27T00:13:34.667Z,95.34
2023-03-27T00:16:02.999Z,95.30
2023-03-27T00:18:30.078Z,96.27
2023-03-27T00:20:59.235Z,96.58
2023-03-27T00:23:26.498Z,96.20
2023-03-27T00:25:54.818Z,96.21
2023-03-27T00:28:21.945Z,96.83
2023-03-27T00:30:49.265Z,97.26
2023-03-27T00:33:16.474Z,98.41
2023-03-27T00:35:47.521Z,98.52
2023-03-27T00:38:15.572Z,99.77
2023-03-27T00:40:46.852Z,100.00
2023-03-27T00:43:34.193Z,100.00
2023-03-27T00:46:21.526Z,100.00
2023-03-27T00:48:51.518Z,100.00
2023-03-27T00:51:20.402Z,100.00
2023-03-27T00:53:47.885Z,100.00
2023-03-27T00:56:16.738Z,100.00
2023-03-27T00:58:49.009Z,100.00
2023-03-27T01:01:17.069Z,100.00
2023-03-27T01:03:45.743Z,100.00
2023-03-27T01:06:14.347Z,100.00
2023-03-27T01:08:43.150Z,100.00
2023-03-27T01:11:32.904Z,99.48
2023-03-27T01:14:08.610Z,97.88
2023-03-27T01:16:36.800Z,96.47
2023-03-27T01:19:22.769Z,95.54
2023-03-27T01:21:52.821Z,95.86
2023-03-27T01:24:22.937Z,96.24
2023-03-27T01:26:58.316Z,96.11
2023-03-27T01:29:26.243Z,96.08
2023-03-27T01:32:17.814Z,96.42
2023-03-27T01:35:02.169Z,98.37
2023-03-27T01:37:32.300Z,98.52
2023-03-27T01:40:18.028Z,97.73
2023-03-27T01:42:49.352Z,97.03
2023-03-27T01:45:16.261Z,96.82
2023-03-27T01:47:51.716Z,96.99
2023-03-27T01:50:21.852Z,96.71
2023-03-27T01:53:15.482Z,96.59
2023-03-27T01:55:47.348Z,98.07
2023-03-27T01:58:17.224Z,96.95
2023-03-27T02:00:51.749Z,96.22
2023-03-27T02:03:21.122Z,96.48
2023-03-27T02:05:58.558Z,97.05
2023-03-27T02:08:49.657Z,97.02
2023-03-27T02:11:21.425Z,96.90
2023-03-27T02:13:51.705Z,98.15
2023-03-27T02:16:20.982Z,98.59
2023-03-27T02:18:56.880Z,98.50
2023-03-27T02:21:24.223Z,100.00
2023-03-27T02:23:51.915Z,100.00
2023-03-27T02:26:19.398Z,100.00
2023-03-27T02:28:51.785Z,100.00
2023-03-27T02:31:37.583Z,100.00
2023-03-27T02:34:20.878Z,99.19
2023-03-27T02:36:59.123Z,98.33
2023-03-27T02:39:43.345Z,97.31
2023-03-27T02:42:18.232Z,97.18
2023-03-27T02:45:17.694Z,97.17
2023-03-27T02:48:08.126Z,97.26
2023-03-27T02:50:54.827Z,97.85
2023-03-27T02:53:24.198Z,98.01
2023-03-27T02:55:54.076Z,97.73
2023-03-27T02:58:27.209Z,98.46
2023-03-27T03:01:18.412Z,98.40
2023-03-27T03:04:12.454Z,98.87
2023-03-27T03:06:59.279Z,100.00
2023-03-27T03:09:28.299Z,100.00
2023-03-27T03:11:55.768Z,99.60
2023-03-27T03:14:45.929Z,98.17
2023-03-27T03:17:13.728Z,97.47
2023-03-27T03:19:41.137Z,97.73
2023-03-27T03:22:08.284Z,98.48
2023-03-27T03:24:37.116Z,98.24
2023-03-27T03:27:04.687Z,97.51
2023-03-27T03:29:40.327Z,99.60
2023-03-27T03:32:34.271Z,99.91
2023-03-27T03:35:01.976Z,100.00
2023-03-27T03:37:38.955Z,100.00
2023-03-27T03:40:14.992Z,100.00
2023-03-27T03:42:47.164Z,100.00
2023-03-27T03:45:15.654Z,100.00
2023-03-27T03:47:44.392Z,100.00
2023-03-27T03:50:12.576Z,100.00
2023-03-27T03:52:40.441Z,100.00
2023-03-27T03:55:08.437Z,100.00
2023-03-27T03:57:36.891Z,100.00
2023-03-27T04:00:09.069Z,100.00
2023-03-27T04:02:54.258Z,100.00
2023-03-27T04:05:22.579Z,100.00
2023-03-27T04:07:54.657Z,100.00
2023-03-27T04:10:41.770Z,100.00
2023-03-27T04:13:18.457Z,100.00
2023-03-27T04:15:56.665Z,100.00
2023-03-27T04:18:33.291Z,100.00
2023-03-27T04:21:04.621Z,100.00
2023-03-27T04:23:32.150Z,100.00
2023-03-27T04:26:03.524Z,100.00
2023-03-27T04:28:57.099Z,100.00
2023-03-27T04:31:46.762Z,100.00
2023-03-27T04:34:32.933Z,100.00
2023-03-27T04:37:07.983Z,100.00
2023-03-27T04:39:43.155Z,100.00
2023-03-27T04:42:11.031Z,100.00
2023-03-27T04:44:39.390Z,100.00
2023-03-27T04:47:09.032Z,100.00
2023-03-27T04:49:44.175Z,100.00
2023-03-27T04:52:26.222Z,100.00
2023-03-27T04:54:54.196Z,100.00
2023-03-27T04:57:22.723Z,100.00
2023-03-27T04:59:50.562Z,100.00
2023-03-27T05:02:45.112Z,100.00
2023-03-27T05:05:25.696Z,100.00
2023-03-27T05:07:53.540Z,100.00
2023-03-27T05:10:24.147Z,100.00
2023-03-27T05:12:53.252Z,100.00
2023-03-27T05:15:21.773Z,100.00
2023-03-27T05:17:55.382Z,100.00
2023-03-27T05:20:25.443Z,98.54
2023-03-27T05:22:56.739Z,93.54
2023-03-27T05:25:29.271Z,94.04
2023-03-27T05:27:58.524Z,92.94
2023-03-27T05:30:29.669Z,92.92
2023-03-27T05:33:17.049Z,91.31
2023-03-27T05:35:48.874Z,87.17
2023-03-27T05:38:18.231Z,85.34
2023-03-27T05:41:04.533Z,80.43
2023-03-27T05:43:36.394Z,78.06
2023-03-27T05:46:04.859Z,79.01
2023-03-27T05:48:32.714Z,82.30
2023-03-27T05:51:05.814Z,87.99
2023-03-27T05:53:37.042Z,86.50
2023-03-27T05:56:27.857Z,78.35
2023-03-27T05:58:58.752Z,75.16
2023-03-27T06:01:28.406Z,73.35
2023-03-27T06:03:59.007Z,72.03
2023-03-27T06:06:50.819Z,69.56
2023-03-27T06:09:18.203Z,68.83
2023-03-27T06:12:03.176Z,69.44
2023-03-27T06:14:33.647Z,68.90
2023-03-27T06:17:15.610Z,68.91
2023-03-27T06:19:49.774Z,67.91
2023-03-27T06:22:17.325Z,66.50
2023-03-27T06:24:46.739Z,67.22
2023-03-27T06:27:18.767Z,66.61
2023-03-27T06:29:46.123Z,66.76
2023-03-27T06:32:14.521Z,63.40
2023-03-27T06:34:50.425Z,61.22
2023-03-27T06:37:37.343Z,58.73
2023-03-27T06:40:10.130Z,58.36
2023-03-27T06:42:39.429Z,58.06
2023-03-27T06:45:26.861Z,58.10
2023-03-27T06:48:29.544Z,58.44
2023-03-27T06:50:59.152Z,57.46
2023-03-27T06:53:28.371Z,56.43
2023-03-27T06:55:57.391Z,55.23
2023-03-27T06:58:27.802Z,53.60
2023-03-27T07:00:56.374Z,51.88
2023-03-27T07:03:23.747Z,51.30
2023-03-27T07:06:09.922Z,49.12
2023-03-27T07:08:52.648Z,47.37
2023-03-27T07:11:20.233Z,45.90
2023-03-27T07:13:57.127Z,44.52
2023-03-27T07:16:27.928Z,43.05
2023-03-27T07:18:56.076Z,42.10
2023-03-27T07:21:24.568Z,41.83
2023-03-27T07:23:52.665Z,41.61
2023-03-27T07:26:30.668Z,43.03
2023-03-27T07:29:11.385Z,42.42
2023-03-27T07:31:55.392Z,42.18
2023-03-27T07:34:34.287Z,42.96
2023-03-27T07:37:11.619Z,43.78
2023-03-27T07:39:49.312Z,44.05
2023-03-27T07:42:17.388Z,43.36
2023-03-27T07:44:58.278Z,43.55
2023-03-27T07:47:25.809Z,43.51
2023-03-27T07:49:53.885Z,42.08
2023-03-27T07:52:23.133Z,42.07
2023-03-27T07:55:00.343Z,38.01
2023-03-27T07:57:54.531Z,38.74
2023-03-27T08:00:26.753Z,36.61
2023-03-27T08:03:10.032Z,35.89
2023-03-27T08:05:43.126Z,35.91
2023-03-27T08:08:12.605Z,33.49
2023-03-27T08:11:13.430Z,33.53
2023-03-27T08:13:47.165Z,32.65
2023-03-27T08:16:17.271Z,30.26
2023-03-27T08:18:47.242Z,30.12
2023-03-27T08:21:15.106Z,31.28
2023-03-27T08:23:43.021Z,28.82
2023-03-27T08:26:28.988Z,29.49
2023-03-27T08:28:59.029Z,28.28
2023-03-27T08:31:30.924Z,29.99
2023-03-27T08:34:02.613Z,29.30
2023-03-27T08:36:44.552Z,29.09
2023-03-27T08:39:13.359Z,27.88
2023-03-27T08:41:53.082Z,27.70
2023-03-27T08:44:27.208Z,28.19
2023-03-27T08:47:01.110Z,25.99
2023-03-27T08:49:37.322Z,27.17
2023-03-27T08:52:25.080Z,26.22
2023-03-27T08:54:59.105Z,26.78
2023-03-27T08:57:45.793Z,24.89
2023-03-27T09:00:21.640Z,23.02
2023-03-27T09:03:22.684Z,25.16
2023-03-27T09:05:52.934Z,23.73
2023-03-27T09:08:23.515Z,24.25
2023-03-27T09:11:02.891Z,25.45
2023-03-27T09:13:46.987Z,25.21
2023-03-27T09:16:28.340Z,26.21
2023-03-27T09:18:57.678Z,26.36
2023-03-27T09:21:47.006Z,28.49
2023-03-27T09:24:30.091Z,27.26
2023-03-27T09:27:19.065Z,27.31
2023-03-27T09:30:20.017Z,26.47
2023-03-27T09:33:03.705Z,27.38
2023-03-27T09:35:32.364Z,26.85
2023-03-27T09:38:01.424Z,27.20
2023-03-27T09:40:35.324Z,27.03
2023-03-27T09:43:10.352Z,26.55
2023-03-27T09:45:41.084Z,25.38
2023-03-27T09:48:15.079Z,26.41
2023-03-27T09:50:47.630Z,26.32
2023-03-27T09:53:28.595Z,27.27
2023-03-27T09:56:18.591Z,26.39
2023-03-27T09:58:52.377Z,27.38
2023-03-27T10:01:29.728Z,28.44
2023-03-27T10:04:11.379Z,27.10
2023-03-27T10:06:44.807Z,28.08
2023-03-27T10:09:30.424Z,28.85
2023-03-27T10:12:11.415Z,29.29
2023-03-27T10:14:41.054Z,29.92
2023-03-27T10:17:23.732Z,30.97
2023-03-27T10:20:05.839Z,29.93
2023-03-27T10:22:41.746Z,28.42
2023-03-27T10:25:18.247Z,27.48
2023-03-27T10:27:54.789Z,28.80
2023-03-27T10:30:42.778Z,28.01
2023-03-27T10:33:37.595Z,27.79
2023-03-27T10:36:37.750Z,29.34
2023-03-27T10:39:14.702Z,30.14
2023-03-27T10:42:13.055Z,29.15
2023-03-27T10:44:46.722Z,28.92
2023-03-27T10:47:19.155Z,29.26
2023-03-27T10:52:33.012Z,29.08
2023-03-27T10:55:30.321Z,29.00
2023-03-27T10:58:02.665Z,27.29
2023-03-27T11:00:39.993Z,27.76
2023-03-27T11:03:21.046Z,26.42
2023-03-27T11:05:54.906Z,27.28
2023-03-27T11:08:42.888Z,28.88
2023-03-27T11:11:16.942Z,29.04
2023-03-27T11:13:49.540Z,28.39
2023-03-27T11:16:24.067Z,28.11
2023-03-27T11:19:11.638Z,28.47
2023-03-27T11:22:05.080Z,29.09
2023-03-27T11:24:42.387Z,29.58
2023-03-27T11:27:23.739Z,30.11
2023-03-27T11:29:57.585Z,30.97
2023-03-27T11:32:41.276Z,31.68
2023-03-27T11:35:16.249Z,31.06
2023-03-27T11:37:54.411Z,31.75
2023-03-27T11:40:28.742Z,32.38
2023-03-27T11:43:01.840Z,33.36
2023-03-27T11:45:44.708Z,33.82
2023-03-27T11:48:27.514Z,35.07
2023-03-27T11:51:04.699Z,36.42
2023-03-27T11:53:52.288Z,34.89
2023-03-27T11:56:56.616Z,34.48
2023-03-27T11:59:50.680Z,32.68
2023-03-27T12:02:30.235Z,32.36
2023-03-27T12:05:18.842Z,30.51
2023-03-27T12:07:59.948Z,29.98
2023-03-27T12:10:30.713Z,30.86
2023-03-27T12:13:09.472Z,31.17
2023-03-27T12:15:39.972Z,31.52
2023-03-27T12:18:20.140Z,31.48
2023-03-27T12:20:57.136Z,31.38
2023-03-27T12:23:33.654Z,30.21
2023-03-27T12:26:35.900Z,29.68
2023-03-27T12:29:33.024Z,28.14
2023-03-27T12:32:21.864Z,27.92
2023-03-27T12:34:57.975Z,28.03
2023-03-27T12:37:35.021Z,28.56
2023-03-27T12:40:02.786Z,28.84
2023-03-27T12:42:43.866Z,29.40
2023-03-27T12:45:14.290Z,30.67
2023-03-27T12:47:45.820Z,30.94
2023-03-27T12:50:22.780Z,31.74
2023-03-27T12:52:53.911Z,31.92
2023-03-27T12:55:32.812Z,32.14
2023-03-27T12:58:04.482Z,32.89
2023-03-27T13:01:02.784Z,33.48
2023-03-27T13:04:00.407Z,33.21
2023-03-27T13:06:28.518Z,33.08
2023-03-27T13:09:00.188Z,32.15
2023-03-27T13:12:02.267Z,32.09
2023-03-27T13:14:32.715Z,32.12
2023-03-27T13:17:00.465Z,32.23
2023-03-27T13:19:40.272Z,32.13
2023-03-27T13:22:19.638Z,32.44
2023-03-27T13:24:47.835Z,31.65
2023-03-27T13:27:22.346Z,30.88
2023-03-27T13:29:52.109Z,30.42
2023-03-27T13:32:40.418Z,29.79
2023-03-27T13:35:24.555Z,29.36
2023-03-27T13:37:52.394Z,29.42
2023-03-27T13:40:29.869Z,30.14
2023-03-27T13:43:08.198Z,30.49
2023-03-27T13:45:51.761Z,32.02
2023-03-27T13:49:00.861Z,32.26
2023-03-27T13:51:48.532Z,31.98
2023-03-27T13:54:16.322Z,32.91
2023-03-27T13:56:53.474Z,33.51
2023-03-27T13:59:32.522Z,33.49
2023-03-27T14:02:33.608Z,33.68
2023-03-27T14:05:24.506Z,33.65
2023-03-27T14:08:13.993Z,33.89
2023-03-27T14:11:29.406Z,34.46
2023-03-27T14:14:19.244Z,34.56
2023-03-27T14:16:50.628Z,34.94
2023-03-27T14:19:21.625Z,35.35
2023-03-27T14:21:51.448Z,35.27
2023-03-27T14:24:26.120Z,35.41
2023-03-27T14:27:03.642Z,35.73
2023-03-27T14:29:32.677Z,35.10
2023-03-27T14:32:05.169Z,34.93
2023-03-27T14:34:47.271Z,35.07
2023-03-27T14:38:00.297Z,35.01
2023-03-27T14:40:48.188Z,35.25
2023-03-27T14:43:19.554Z,36.41
2023-03-27T14:45:54.848Z,36.47
2023-03-27T14:48:26.285Z,36.33
2023-03-27T14:50:58.951Z,37.39
2023-03-27T14:54:06.376Z,37.07
2023-03-27T14:56:55.358Z,37.50
2023-03-27T14:59:36.831Z,38.09
2023-03-27T15:02:35.370Z,38.12
2023-03-27T15:05:13.196Z,38.96
2023-03-27T15:07:47.282Z,38.99
2023-03-27T15:10:24.434Z,39.50
2023-03-27T15:13:10.930Z,39.98
2023-03-27T15:15:47.229Z,40.32
2023-03-27T15:18:25.351Z,40.54
2023-03-27T15:20:54.614Z,40.56
2023-03-27T15:23:34.116Z,41.02
2023-03-27T15:26:07.622Z,40.89
2023-03-27T15:29:02.261Z,40.97
2023-03-27T15:31:31.639Z,41.39
2023-03-27T15:34:16.995Z,41.47
2023-03-27T15:36:47.184Z,42.21
2023-03-27T15:39:22.624Z,42.25
2023-03-27T15:41:53.554Z,42.79
2023-03-27T15:44:24.878Z,42.49
2023-03-27T15:46:58.229Z,42.81
2023-03-27T15:49:38.912Z,43.17
2023-03-27T15:52:31.897Z,43.76
2023-03-27T15:55:01.887Z,44.15
2023-03-27T15:57:29.953Z,44.80
2023-03-27T16:00:08.830Z,45.37
2023-03-27T16:02:41.869Z,45.23
2023-03-27T16:05:17.673Z,45.47
2023-03-27T16:07:48.813Z,45.64
2023-03-27T16:10:34.449Z,46.77
2023-03-27T16:13:04.303Z,46.76
2023-03-27T16:15:38.057Z,47.34
2023-03-27T16:18:30.817Z,47.48
2023-03-27T16:21:16.464Z,48.60
2023-03-27T16:23:44.543Z,47.72
2023-03-27T16:26:18.815Z,47.90
2023-03-27T16:28:46.816Z,48.51
2023-03-27T16:31:19.489Z,48.44
2023-03-27T16:33:47.453Z,48.99
2023-03-27T16:36:20.454Z,48.56
2023-03-27T16:38:47.468Z,49.57
2023-03-27T16:41:16.639Z,49.57
2023-03-27T16:43:45.111Z,50.27
2023-03-27T16:46:22.662Z,50.44
2023-03-27T16:48:52.214Z,50.29
2023-03-27T16:51:21.014Z,51.01
2023-03-27T16:53:48.225Z,50.81
2023-03-27T16:56:16.169Z,51.18
2023-03-27T16:58:43.397Z,50.52
2023-03-27T17:01:11.137Z,50.93
2023-03-27T17:03:38.892Z,50.38
2023-03-27T17:06:09.014Z,50.19
2023-03-27T17:08:37.336Z,51.28
2023-03-27T17:11:10.282Z,51.47
2023-03-27T17:13:40.841Z,51.41
2023-03-27T17:16:09.922Z,53.11
2023-03-27T17:18:37.172Z,57.06
2023-03-27T17:21:04.730Z,59.10
2023-03-27T17:23:31.953Z,59.58
2023-03-27T17:26:04.068Z,59.34
2023-03-27T17:28:31.785Z,59.02
2023-03-27T17:31:04.543Z,57.38
2023-03-27T17:33:33.127Z,58.23
2023-03-27T17:36:00.677Z,58.01
2023-03-27T17:38:28.441Z,55.32
2023-03-27T17:40:55.932Z,55.93
2023-03-27T17:43:23.178Z,54.44
2023-03-27T17:45:51.446Z,54.85
2023-03-27T17:48:18.860Z,55.00
2023-03-27T17:50:54.747Z,55.49
2023-03-27T17:53:29.354Z,55.31
2023-03-27T17:55:57.714Z,55.42
2023-03-27T17:58:29.196Z,55.17
2023-03-27T18:00:56.545Z,55.68
2023-03-27T18:03:24.168Z,56.01
2023-03-27T18:05:51.531Z,55.59
2023-03-27T18:08:20.094Z,55.44
2023-03-27T18:10:50.555Z,55.31
2023-03-27T18:13:18.975Z,55.82
2023-03-27T18:15:46.709Z,55.74
2023-03-27T18:18:13.894Z,55.47
2023-03-27T18:20:41.645Z,55.12
2023-03-27T18:23:08.670Z,55.07
2023-03-27T18:25:38.134Z,54.52
2023-03-27T18:28:05.795Z,54.89
2023-03-27T18:30:32.873Z,54.67
2023-03-27T18:33:00.185Z,54.54
2023-03-27T18:35:27.613Z,54.92
2023-03-27T18:37:54.751Z,54.59
2023-03-27T18:40:22.715Z,54.50
2023-03-27T18:42:50.267Z,53.46
2023-03-27T18:45:18.288Z,53.62
2023-03-27T18:47:45.952Z,53.65
2023-03-27T18:50:14.604Z,52.59
2023-03-27T18:52:42.109Z,52.33
2023-03-27T18:55:11.497Z,52.36
2023-03-27T18:57:38.799Z,52.46
2023-03-27T19:00:15.614Z,52.22
2023-03-27T19:02:43.019Z,52.43
2023-03-27T19:05:11.053Z,52.78
2023-03-27T19:07:45.001Z,52.58
2023-03-27T19:10:13.169Z,52.06
2023-03-27T19:12:40.463Z,52.31
2023-03-27T19:15:19.767Z,52.31
2023-03-27T19:17:53.900Z,52.51
2023-03-27T19:20:47.784Z,52.81
2023-03-27T19:23:23.148Z,52.61
2023-03-27T19:25:52.144Z,52.47
2023-03-27T19:28:20.159Z,53.11
2023-03-27T19:30:48.252Z,53.96
2023-03-27T19:33:15.906Z,54.18
2023-03-27T19:35:42.995Z,54.60
2023-03-27T19:38:12.651Z,54.00
2023-03-27T19:40:39.950Z,54.43
2023-03-27T19:43:07.265Z,54.44
2023-03-27T19:45:34.722Z,54.25
2023-03-27T19:48:01.982Z,54.57
2023-03-27T19:50:29.608Z,55.04
2023-03-27T19:53:14.726Z,55.13
2023-03-27T19:55:43.186Z,55.94
2023-03-27T19:58:12.500Z,55.39
2023-03-27T20:00:39.615Z,55.29
2023-03-27T20:03:10.584Z,55.59
2023-03-27T20:05:39.658Z,55.38
2023-03-27T20:08:06.980Z,55.70
2023-03-27T20:10:34.562Z,55.80
2023-03-27T20:13:01.944Z,56.17
2023-03-27T20:15:30.053Z,56.59
2023-03-27T20:17:57.307Z,56.69
2023-03-27T20:20:24.523Z,56.43
2023-03-27T20:22:57.954Z,56.80
2023-03-27T20:25:25.830Z,57.33
2023-03-27T20:27:53.246Z,56.94
2023-03-27T20:30:20.609Z,57.48
2023-03-27T20:32:49.638Z,57.77
2023-03-27T20:35:24.307Z,57.74
2023-03-27T20:37:58.070Z,57.92
2023-03-27T20:40:30.284Z,57.75
2023-03-27T20:43:06.145Z,57.48
2023-03-27T20:45:33.556Z,58.10
2023-03-27T20:48:03.543Z,59.42
2023-03-27T20:50:32.012Z,59.33
2023-03-27T20:52:59.524Z,59.63
2023-03-27T20:55:33.689Z,60.28
2023-03-27T20:58:06.802Z,61.15
2023-03-27T21:00:34.848Z,60.87
2023-03-27T21:03:02.558Z,60.99
2023-03-27T21:05:32.461Z,62.53
2023-03-27T21:08:00.054Z,62.64
2023-03-27T21:10:27.432Z,63.73
2023-03-27T21:12:57.137Z,63.68
2023-03-27T21:15:24.565Z,63.80
2023-03-27T21:17:51.747Z,66.65
2023-03-27T21:20:19.001Z,67.20
2023-03-27T21:22:46.535Z,68.85
2023-03-27T21:25:13.843Z,70.36
2023-03-27T21:27:41.325Z,72.35
2023-03-27T21:30:10.144Z,72.84
2023-03-27T21:32:37.237Z,74.52
2023-03-27T21:35:04.512Z,76.63
2023-03-27T21:37:32.625Z,77.43
2023-03-27T21:39:59.966Z,78.62
2023-03-27T21:42:27.354Z,79.10
2023-03-27T21:44:56.682Z,80.42
2023-03-27T21:47:31.623Z,80.30
2023-03-27T21:50:01.904Z,81.54
2023-03-27T21:52:29.022Z,80.79
2023-03-27T21:55:02.468Z,80.72
2023-03-27T21:57:30.626Z,82.30
2023-03-27T21:59:58.369Z,82.52
2023-03-27T22:02:25.996Z,83.05
2023-03-27T22:04:53.559Z,82.20
2023-03-27T22:07:21.037Z,83.98
2023-03-27T22:09:48.099Z,84.43
2023-03-27T22:12:16.797Z,83.51
2023-03-27T22:14:43.990Z,85.88
2023-03-27T22:17:11.430Z,85.74
2023-03-27T22:19:38.660Z,85.15
2023-03-27T22:22:05.910Z,85.92
2023-03-27T22:24:33.240Z,86.34
2023-03-27T22:27:00.580Z,86.45
2023-03-27T22:29:27.985Z,86.40
2023-03-27T22:31:55.151Z,87.42
2023-03-27T22:34:22.588Z,88.22
2023-03-27T22:36:49.679Z,88.28
2023-03-27T22:39:17.143Z,89.36
2023-03-27T22:41:44.558Z,90.81
2023-03-27T22:44:11.975Z,91.23
2023-03-27T22:46:39.200Z,92.09
2023-03-27T22:49:06.829Z,92.94
2023-03-27T22:51:34.038Z,94.11
2023-03-27T22:54:01.182Z,94.69
2023-03-27T22:56:28.474Z,93.86
2023-03-27T22:58:55.806Z,94.60
2023-03-27T23:01:23.159Z,94.42
2023-03-27T23:03:50.614Z,95.33
2023-03-27T23:06:20.004Z,95.64
2023-03-27T23:08:49.213Z,95.45
2023-03-27T23:11:17.805Z,96.07
2023-03-27T23:13:45.284Z,96.46
2023-03-27T23:16:15.393Z,96.40
2023-03-27T23:18:42.838Z,95.62
2023-03-27T23:21:11.801Z,95.36
2023-03-27T23:23:40.735Z,95.85
2023-03-27T23:26:08.874Z,95.37
2023-03-27T23:28:38.866Z,95.65
2023-03-27T23:31:10.581Z,95.00
2023-03-27T23:33:40.124Z,94.82
2023-03-27T23:36:09.186Z,95.03
2023-03-27T23:38:37.628Z,94.12
2023-03-27T23:41:06.917Z,93.18
2023-03-27T23:43:35.388Z,92.97
2023-03-27T23:46:04.734Z,92.60
2023-03-27T23:48:32.082Z,92.59
2023-03-27T23:50:59.358Z,91.94
2023-03-27T23:53:28.322Z,91.51
2023-03-27T23:55:57.679Z,90.21
2023-03-27T23:58:29.912Z,89.23
